createdAt,value
2023-03-17T00:01:19.908Z,1.50
2023-03-17T00:03:49.839Z,1.58
2023-03-17T00:06:23.726Z,0.93
2023-03-17T00:08:52.697Z,1.65
2023-03-17T00:11:22.013Z,1.10
2023-03-17T00:13:49.784Z,2.22
2023-03-17T00:16:19.988Z,2.20
2023-03-17T00:18:48.279Z,1.85
2023-03-17T00:21:19.773Z,2.00
2023-03-17T00:23:51.562Z,1.83
2023-03-17T00:26:20.598Z,1.35
2023-03-17T00:28:48.401Z,1.58
2023-03-17T00:31:17.687Z,1.77
2023-03-17T00:33:46.433Z,1.60
2023-03-17T00:36:17.897Z,2.17
2023-03-17T00:38:45.964Z,1.65
2023-03-17T00:41:13.979Z,2.33
2023-03-17T00:43:43.283Z,1.50
2023-03-17T00:46:14.581Z,1.70
2023-03-17T00:48:43.424Z,1.92
2023-03-17T00:51:11.976Z,1.35
2023-03-17T00:53:40.527Z,1.60
2023-03-17T00:56:14.322Z,1.40
2023-03-17T00:58:43.864Z,1.42
2023-03-17T01:01:12.301Z,2.07
2023-03-17T01:03:40.475Z,2.13
2023-03-17T01:06:11.246Z,1.48
2023-03-17T01:08:40.608Z,1.13
2023-03-17T01:11:14.603Z,1.35
2023-03-17T01:13:43.571Z,1.33
2023-03-17T01:16:12.222Z,1.60
2023-03-17T01:18:39.965Z,1.15
2023-03-17T01:21:09.432Z,1.67
2023-03-17T01:23:37.898Z,1.50
2023-03-17T01:26:06.530Z,2.03
2023-03-17T01:28:34.283Z,1.97
2023-03-17T01:31:03.387Z,2.45
2023-03-17T01:33:31.030Z,1.97
2023-03-17T01:35:58.653Z,2.20
2023-03-17T01:38:26.302Z,1.70
2023-03-17T01:40:56.663Z,2.08
2023-03-17T01:43:27.549Z,1.43
2023-03-17T01:46:29.581Z,1.65
2023-03-17T01:49:10.009Z,1.45
2023-03-17T01:51:44.074Z,1.23
2023-03-17T01:54:15.187Z,2.10
2023-03-17T01:56:46.310Z,2.83
2023-03-17T01:59:20.121Z,1.38
2023-03-17T02:01:52.425Z,2.63
2023-03-17T02:04:21.767Z,1.83
2023-03-17T02:06:57.959Z,2.50
2023-03-17T02:09:28.017Z,2.00
2023-03-17T02:11:57.173Z,1.98
2023-03-17T02:14:25.454Z,2.47
2023-03-17T02:16:54.588Z,2.28
2023-03-17T02:19:22.315Z,2.57
2023-03-17T02:21:53.701Z,2.50
2023-03-17T02:24:27.455Z,2.08
2023-03-17T02:26:58.222Z,2.65
2023-03-17T02:29:25.847Z,2.43
2023-03-17T02:31:53.709Z,3.35
2023-03-17T02:34:21.735Z,2.37
2023-03-17T02:36:49.418Z,2.88
2023-03-17T02:39:18.557Z,3.17
2023-03-17T02:41:46.224Z,3.05
2023-03-17T02:44:13.930Z,2.65
2023-03-17T02:46:41.663Z,2.95
2023-03-17T02:49:10.000Z,2.03
2023-03-17T02:51:37.744Z,1.98
2023-03-17T02:54:05.585Z,3.67
2023-03-17T02:56:34.681Z,2.63
2023-03-17T02:59:02.306Z,1.97
2023-03-17T03:01:30.920Z,2.60
2023-03-17T03:03:58.843Z,2.50
2023-03-17T03:06:26.749Z,2.58
2023-03-17T03:08:54.538Z,2.90
2023-03-17T03:11:27.853Z,1.90
2023-03-17T03:13:56.928Z,2.53
2023-03-17T03:16:25.150Z,2.92
2023-03-17T03:18:52.920Z,2.00
2023-03-17T03:21:20.557Z,2.97
2023-03-17T03:23:48.285Z,2.90
2023-03-17T03:26:16.270Z,2.37
2023-03-17T03:28:43.919Z,3.28
2023-03-17T03:31:13.772Z,2.60
2023-03-17T03:33:41.694Z,3.05
2023-03-17T03:36:10.125Z,3.45
2023-03-17T03:38:39.300Z,1.83
2023-03-17T03:41:07.358Z,2.45
2023-03-17T03:43:35.267Z,1.40
2023-03-17T03:46:03.209Z,2.30
2023-03-17T03:48:32.333Z,2.90
2023-03-17T03:51:01.251Z,2.95
2023-03-17T03:53:29.932Z,2.42
2023-03-17T03:55:57.565Z,2.08
2023-03-17T03:58:25.338Z,2.10
2023-03-17T04:00:53.038Z,3.03
2023-03-17T04:03:20.682Z,2.33
2023-03-17T04:05:51.697Z,2.22
2023-03-17T04:08:19.360Z,2.80
2023-03-17T04:10:47.516Z,2.08
2023-03-17T04:13:15.360Z,3.42
2023-03-17T04:15:43.098Z,2.33
2023-03-17T04:18:11.578Z,2.75
2023-03-17T04:20:39.428Z,2.78
2023-03-17T04:23:08.608Z,2.45
2023-03-17T04:25:36.735Z,3.20
2023-03-17T04:28:04.730Z,3.22
2023-03-17T04:30:32.713Z,1.88
2023-03-17T04:33:01.018Z,2.97
2023-03-17T04:35:28.699Z,2.70
2023-03-17T04:37:56.544Z,3.07
2023-03-17T04:40:25.582Z,2.40
2023-03-17T04:42:53.242Z,2.42
2023-03-17T04:45:21.026Z,2.60
2023-03-17T04:47:48.674Z,2.10
2023-03-17T04:50:17.876Z,2.95
2023-03-17T04:52:45.550Z,2.43
2023-03-17T04:55:13.181Z,2.60
2023-03-17T04:57:42.103Z,2.60
2023-03-17T05:00:11.759Z,3.13
2023-03-17T05:02:39.887Z,2.15
2023-03-17T05:05:08.509Z,2.38
2023-03-17T05:07:36.402Z,2.37
2023-03-17T05:10:04.130Z,2.93
2023-03-17T05:12:31.992Z,2.63
2023-03-17T05:15:00.939Z,1.88
2023-03-17T05:17:28.546Z,1.83
2023-03-17T05:19:56.370Z,2.20
2023-03-17T05:22:24.053Z,1.77
2023-03-17T05:24:51.778Z,2.95
2023-03-17T05:27:19.375Z,2.07
2023-03-17T05:29:47.483Z,1.70
2023-03-17T05:32:18.305Z,4.63
2023-03-17T05:34:46.268Z,3.97
2023-03-17T05:37:15.554Z,3.70
2023-03-17T05:39:43.640Z,3.45
2023-03-17T05:42:11.463Z,2.77
2023-03-17T05:44:39.607Z,2.97
2023-03-17T05:47:08.363Z,3.03
2023-03-17T05:49:37.434Z,2.03
2023-03-17T05:52:05.100Z,2.08
2023-03-17T05:54:32.856Z,2.63
2023-03-17T05:57:01.015Z,2.30
2023-03-17T05:59:28.996Z,2.50
2023-03-17T06:01:57.161Z,2.00
2023-03-17T06:04:25.277Z,2.73
2023-03-17T06:06:54.220Z,2.72
2023-03-17T06:09:21.939Z,2.70
2023-03-17T06:11:49.565Z,2.90
2023-03-17T06:14:17.342Z,2.38
2023-03-17T06:16:45.062Z,2.72
2023-03-17T06:19:13.025Z,2.53
2023-03-17T06:21:41.142Z,3.78
2023-03-17T06:24:10.535Z,2.30
2023-03-17T06:26:38.257Z,3.53
2023-03-17T06:29:08.993Z,3.37
2023-03-17T06:31:37.151Z,1.83
2023-03-17T06:34:05.638Z,3.00
2023-03-17T06:36:33.763Z,2.73
2023-03-17T06:39:02.028Z,2.80
2023-03-17T06:41:31.333Z,2.67
2023-03-17T06:43:59.184Z,3.07
2023-03-17T06:46:27.108Z,2.47
2023-03-17T06:48:54.915Z,2.55
2023-03-17T06:51:22.553Z,2.10
2023-03-17T06:53:50.477Z,2.20
2023-03-17T06:56:29.577Z,2.40
2023-03-17T06:58:59.361Z,2.30
2023-03-17T07:01:27.705Z,1.50
2023-03-17T07:03:55.461Z,2.30
2023-03-17T07:06:24.227Z,2.95
2023-03-17T07:08:52.244Z,2.42
2023-03-17T07:11:20.360Z,3.42
2023-03-17T07:13:48.034Z,2.30
2023-03-17T07:16:19.507Z,1.95
2023-03-17T07:18:47.454Z,2.10
2023-03-17T07:21:15.699Z,4.35
2023-03-17T07:23:43.348Z,3.35
2023-03-17T07:26:11.146Z,2.78
2023-03-17T07:28:39.009Z,2.08
2023-03-17T07:31:08.780Z,2.28
2023-03-17T07:33:38.206Z,3.00
2023-03-17T07:36:07.281Z,5.32
2023-03-17T07:38:36.101Z,6.88
2023-03-17T07:41:04.646Z,2.72
2023-03-17T07:43:32.295Z,2.70
2023-03-17T07:46:00.143Z,3.33
2023-03-17T07:48:28.177Z,2.75
2023-03-17T07:50:57.132Z,2.63
2023-03-17T07:53:25.250Z,2.13
2023-03-17T07:55:52.835Z,2.72
2023-03-17T07:58:21.632Z,2.83
2023-03-17T08:00:49.847Z,1.90
2023-03-17T08:03:17.643Z,2.90
2023-03-17T08:05:47.861Z,2.33
2023-03-17T08:08:17.123Z,2.33
2023-03-17T08:10:47.131Z,2.63
2023-03-17T08:13:15.113Z,2.22
2023-03-17T08:15:43.459Z,1.95
2023-03-17T08:18:11.467Z,2.30
2023-03-17T08:20:39.133Z,2.10
2023-03-17T08:23:07.391Z,2.53
2023-03-17T08:25:36.919Z,3.10
2023-03-17T08:28:04.672Z,2.22
2023-03-17T08:30:33.943Z,2.97
2023-03-17T08:33:02.572Z,2.00
2023-03-17T08:35:31.032Z,2.72
2023-03-17T08:37:59.058Z,2.45
2023-03-17T08:40:26.853Z,2.75
2023-03-17T08:42:55.915Z,2.20
2023-03-17T08:45:23.600Z,2.05
2023-03-17T08:47:51.308Z,2.13
2023-03-17T08:50:21.870Z,1.10
2023-03-17T08:52:51.439Z,2.35
2023-03-17T08:55:19.962Z,1.65
2023-03-17T08:57:48.741Z,2.10
2023-03-17T09:00:20.483Z,2.10
2023-03-17T09:02:49.353Z,2.70
2023-03-17T09:05:18.412Z,2.53
2023-03-17T09:07:46.070Z,2.45
2023-03-17T09:10:14.928Z,2.38
2023-03-17T09:12:42.948Z,1.63
2023-03-17T09:15:12.923Z,1.70
2023-03-17T09:17:43.703Z,1.80
2023-03-17T09:20:12.410Z,2.05
2023-03-17T09:22:40.000Z,2.05
2023-03-17T09:25:08.207Z,1.77
2023-03-17T09:27:36.559Z,2.55
2023-03-17T09:30:04.496Z,2.83
2023-03-17T09:32:32.304Z,2.28
2023-03-17T09:35:01.880Z,2.65
2023-03-17T09:37:29.473Z,1.95
2023-03-17T09:39:57.899Z,1.77
2023-03-17T09:42:43.674Z,2.30
2023-03-17T09:45:22.412Z,1.92
2023-03-17T09:47:59.248Z,1.73
2023-03-17T09:50:40.250Z,1.35
2023-03-17T09:53:16.727Z,1.70
2023-03-17T09:55:49.109Z,1.88
2023-03-17T09:58:19.770Z,1.70
2023-03-17T10:00:47.443Z,1.70
2023-03-17T10:03:16.036Z,2.03
2023-03-17T10:05:45.749Z,1.80
2023-03-17T10:08:30.165Z,2.03
2023-03-17T10:11:03.998Z,1.60
2023-03-17T10:13:45.471Z,1.75
2023-03-17T10:16:15.285Z,1.75
2023-03-17T10:18:47.800Z,1.60
2023-03-17T10:21:21.545Z,2.33
2023-03-17T10:23:49.487Z,1.65
2023-03-17T10:26:28.888Z,2.22
2023-03-17T10:28:57.452Z,1.95
2023-03-17T10:31:30.790Z,1.90
2023-03-17T10:34:05.282Z,1.70
2023-03-17T10:36:38.769Z,1.05
2023-03-17T10:39:08.520Z,1.80
2023-03-17T10:41:40.950Z,1.25
2023-03-17T10:44:11.058Z,1.58
2023-03-17T10:46:40.133Z,1.63
2023-03-17T10:49:10.960Z,1.63
2023-03-17T10:51:40.753Z,1.38
2023-03-17T10:54:11.848Z,1.33
2023-03-17T10:56:42.828Z,1.75
2023-03-17T10:59:19.375Z,1.73
2023-03-17T11:01:56.945Z,1.23
2023-03-17T11:04:31.632Z,1.70
2023-03-17T11:07:09.941Z,1.20
2023-03-17T11:09:38.829Z,1.73
2023-03-17T11:12:08.780Z,1.40
2023-03-17T11:14:37.845Z,2.10
2023-03-17T11:17:17.059Z,1.30
2023-03-17T11:19:53.366Z,1.40
2023-03-17T11:22:31.805Z,1.85
2023-03-17T11:25:11.431Z,2.13
2023-03-17T11:27:47.969Z,1.60
2023-03-17T11:30:18.586Z,2.05
2023-03-17T11:32:56.790Z,1.10
2023-03-17T11:35:53.033Z,1.63
2023-03-17T11:38:28.176Z,1.02
2023-03-17T11:41:13.278Z,1.52
2023-03-17T11:43:54.271Z,1.90
2023-03-17T11:46:27.834Z,2.08
2023-03-17T11:49:03.500Z,1.52
2023-03-17T11:51:37.466Z,2.20
2023-03-17T11:54:13.869Z,1.80
2023-03-17T11:56:46.752Z,1.60
2023-03-17T11:59:21.682Z,1.90
2023-03-17T12:01:58.136Z,1.35
2023-03-17T12:04:34.228Z,1.50
2023-03-17T12:07:09.778Z,1.85
2023-03-17T12:09:45.806Z,2.08
2023-03-17T12:12:20.822Z,1.75
2023-03-17T12:14:52.348Z,1.90
2023-03-17T12:17:26.840Z,1.73
2023-03-17T12:20:06.682Z,1.60
2023-03-17T12:22:41.365Z,2.55
2023-03-17T12:25:18.925Z,1.63
2023-03-17T12:27:58.852Z,1.95
2023-03-17T12:30:32.371Z,1.55
2023-03-17T12:33:12.351Z,1.60
2023-03-17T12:35:40.617Z,1.83
2023-03-17T12:38:13.630Z,1.65
2023-03-17T12:41:10.921Z,1.80
2023-03-17T12:43:47.799Z,1.92
2023-03-17T12:46:44.774Z,1.67
2023-03-17T12:49:31.404Z,2.40
2023-03-17T12:52:12.376Z,1.48
2023-03-17T12:54:47.805Z,1.40
2023-03-17T12:57:20.308Z,2.22
2023-03-17T12:59:50.495Z,1.50
2023-03-17T13:02:32.225Z,1.77
2023-03-17T13:05:01.974Z,1.60
2023-03-17T13:07:36.760Z,1.80
2023-03-17T13:10:39.898Z,1.27
2023-03-17T13:13:13.035Z,1.45
2023-03-17T13:15:58.787Z,1.20
2023-03-17T13:18:51.174Z,1.02
2023-03-17T13:21:24.917Z,1.38
2023-03-17T13:24:24.546Z,1.60
2023-03-17T13:27:01.602Z,1.80
2023-03-17T13:29:43.678Z,2.08
2023-03-17T13:32:32.663Z,2.00
2023-03-17T13:35:26.478Z,2.10
2023-03-17T13:38:10.601Z,2.80
2023-03-17T13:40:52.451Z,0.90
2023-03-17T13:43:46.693Z,1.10
2023-03-17T13:46:27.467Z,1.10
2023-03-17T13:48:57.419Z,1.27
2023-03-17T13:51:28.118Z,1.27
2023-03-17T13:53:58.093Z,1.40
2023-03-17T13:56:30.391Z,1.70
2023-03-17T13:59:13.585Z,1.20
2023-03-17T14:01:48.229Z,1.33
2023-03-17T14:04:22.749Z,1.50
2023-03-17T14:06:54.045Z,1.67
2023-03-17T14:09:32.064Z,1.15
2023-03-17T14:12:04.146Z,1.40
2023-03-17T14:14:39.188Z,1.30
2023-03-17T14:17:14.833Z,1.40
2023-03-17T14:19:43.348Z,2.00
2023-03-17T14:22:23.267Z,2.28
2023-03-17T14:24:54.961Z,2.40
2023-03-17T14:27:25.357Z,2.63
2023-03-17T14:29:53.182Z,2.35
2023-03-17T14:32:26.411Z,1.67
2023-03-17T14:34:59.263Z,1.17
2023-03-17T14:37:27.791Z,1.73
2023-03-17T14:39:58.833Z,1.92
2023-03-17T14:42:28.459Z,1.30
2023-03-17T14:45:04.260Z,1.20
2023-03-17T14:47:39.513Z,1.10
2023-03-17T14:50:19.753Z,1.35
2023-03-17T14:52:47.632Z,1.95
2023-03-17T14:55:16.987Z,1.23
2023-03-17T14:57:50.906Z,1.08
2023-03-17T15:00:34.840Z,1.17
2023-03-17T15:03:05.774Z,0.98
2023-03-17T15:05:41.835Z,1.45
2023-03-17T15:08:29.368Z,1.27
2023-03-17T15:11:01.957Z,1.20
2023-03-17T15:13:34.135Z,1.30
2023-03-17T15:16:07.327Z,1.20
2023-03-17T15:18:36.408Z,1.42
2023-03-17T15:21:04.053Z,1.08
2023-03-17T15:23:40.618Z,2.00
2023-03-17T15:26:22.688Z,1.15
2023-03-17T15:28:50.612Z,1.48
2023-03-17T15:31:23.365Z,1.50
2023-03-17T15:33:53.111Z,1.55
2023-03-17T15:36:31.947Z,1.80
2023-03-17T15:39:00.716Z,1.02
2023-03-17T15:41:28.671Z,1.40
2023-03-17T15:43:56.742Z,1.67
2023-03-17T15:46:30.640Z,1.67
2023-03-17T15:49:00.449Z,1.48
2023-03-17T15:51:28.437Z,1.00
2023-03-17T15:53:56.081Z,1.35
2023-03-17T15:56:23.878Z,1.13
2023-03-17T15:58:52.621Z,2.10
2023-03-17T16:01:22.497Z,1.60
2023-03-17T16:03:50.642Z,1.67
2023-03-17T16:06:23.327Z,1.48
2023-03-17T16:08:51.757Z,1.73
2023-03-17T16:11:30.403Z,2.28
2023-03-17T16:14:00.667Z,2.47
2023-03-17T16:16:37.504Z,1.50
2023-03-17T16:19:06.461Z,1.67
2023-03-17T16:21:36.021Z,2.25
2023-03-17T16:24:09.679Z,1.98
2023-03-17T16:26:37.611Z,1.42
2023-03-17T16:29:11.805Z,1.77
2023-03-17T16:31:41.607Z,1.92
2023-03-17T16:34:17.253Z,1.92
2023-03-17T16:36:50.508Z,1.45
2023-03-17T16:39:19.868Z,1.80
2023-03-17T16:41:48.733Z,1.95
2023-03-17T16:44:20.101Z,2.28
2023-03-17T16:46:48.981Z,1.90
2023-03-17T16:49:21.131Z,1.40
2023-03-17T16:51:50.796Z,1.23
2023-03-17T16:54:19.131Z,1.75
2023-03-17T16:56:48.882Z,1.63
2023-03-17T16:59:20.769Z,2.03
2023-03-17T17:01:48.929Z,3.78
2023-03-17T17:04:16.915Z,4.63
2023-03-17T17:06:44.866Z,1.90
2023-03-17T17:09:13.946Z,2.25
2023-03-17T17:11:41.691Z,2.08
2023-03-17T17:14:09.875Z,1.80
2023-03-17T17:16:40.639Z,2.88
2023-03-17T17:19:16.381Z,2.45
2023-03-17T17:21:45.160Z,1.83
2023-03-17T17:24:15.115Z,2.03
2023-03-17T17:26:42.959Z,2.08
2023-03-17T17:29:10.652Z,1.55
2023-03-17T17:31:38.394Z,1.92
2023-03-17T17:34:06.180Z,1.60
2023-03-17T17:36:34.335Z,2.28
2023-03-17T17:39:04.341Z,2.00
2023-03-17T17:41:37.579Z,1.95
2023-03-17T17:44:06.463Z,1.85
2023-03-17T17:46:34.471Z,2.20
2023-03-17T17:49:02.259Z,1.88
2023-03-17T17:51:31.384Z,5.25
2023-03-17T17:53:59.537Z,4.38
2023-03-17T17:56:28.103Z,4.45
2023-03-17T17:58:57.399Z,5.47
2023-03-17T18:01:25.247Z,4.53
2023-03-17T18:03:52.969Z,6.90
2023-03-17T18:06:20.676Z,4.55
2023-03-17T18:08:50.213Z,5.75
2023-03-17T18:11:19.364Z,4.70
2023-03-17T18:13:47.543Z,2.55
2023-03-17T18:16:18.547Z,3.15
2023-03-17T18:18:47.072Z,2.47
2023-03-17T18:21:15.929Z,2.47
2023-03-17T18:23:49.135Z,2.83
2023-03-17T18:26:18.180Z,2.30
2023-03-17T18:28:46.020Z,2.35
2023-03-17T18:31:19.233Z,2.00
2023-03-17T18:33:49.203Z,2.30
2023-03-17T18:36:18.141Z,3.08
2023-03-17T18:38:46.936Z,4.18
2023-03-17T18:41:16.069Z,2.50
2023-03-17T18:43:44.806Z,2.10
2023-03-17T18:46:12.963Z,2.35
2023-03-17T18:48:42.063Z,2.55
2023-03-17T18:51:09.774Z,2.70
2023-03-17T18:53:39.241Z,2.63
2023-03-17T18:56:07.691Z,2.33
2023-03-17T18:58:36.188Z,1.73
2023-03-17T19:01:04.477Z,2.53
2023-03-17T19:03:33.377Z,2.88
2023-03-17T19:06:10.635Z,3.55
2023-03-17T19:08:38.404Z,3.22
2023-03-17T19:11:07.620Z,3.17
2023-03-17T19:13:35.835Z,2.33
2023-03-17T19:16:03.694Z,1.70
2023-03-17T19:18:31.884Z,2.33
2023-03-17T19:20:59.555Z,2.95
2023-03-17T19:23:29.263Z,2.80
2023-03-17T19:25:56.823Z,2.88
2023-03-17T19:28:24.551Z,2.58
2023-03-17T19:30:52.268Z,2.78
2023-03-17T19:33:20.011Z,4.63
2023-03-17T19:35:53.995Z,5.97
2023-03-17T19:38:21.850Z,3.50
2023-03-17T19:40:50.744Z,2.60
2023-03-17T19:43:36.857Z,2.47
2023-03-17T19:46:06.315Z,2.58
2023-03-17T19:48:34.554Z,1.70
2023-03-17T19:51:03.365Z,2.30
2023-03-17T19:53:31.378Z,2.00
2023-03-17T19:56:00.376Z,2.08
2023-03-17T19:58:28.172Z,1.55
2023-03-17T20:00:56.212Z,1.45
2023-03-17T20:03:26.181Z,1.70
2023-03-17T20:05:54.225Z,1.90
2023-03-17T20:08:22.608Z,2.25
2023-03-17T20:10:53.883Z,2.10
2023-03-17T20:13:23.308Z,2.58
2023-03-17T20:15:51.704Z,2.25
2023-03-17T20:18:20.195Z,2.70
2023-03-17T20:20:52.953Z,1.77
2023-03-17T20:23:22.756Z,2.28
2023-03-17T20:25:52.797Z,2.30
2023-03-17T20:28:24.145Z,1.80
2023-03-17T20:30:52.729Z,2.40
2023-03-17T20:33:21.538Z,2.40
2023-03-17T20:35:50.184Z,1.95
2023-03-17T20:38:18.618Z,3.08
2023-03-17T20:40:47.068Z,1.77
2023-03-17T20:43:16.145Z,1.80
2023-03-17T20:45:46.224Z,1.70
2023-03-17T20:48:14.609Z,2.40
2023-03-17T20:50:51.168Z,2.05
2023-03-17T20:53:19.278Z,2.78
2023-03-17T20:55:48.095Z,2.42
2023-03-17T20:58:16.081Z,3.20
2023-03-17T21:00:45.587Z,3.60
2023-03-17T21:03:13.273Z,3.30
2023-03-17T21:05:42.281Z,3.25
2023-03-17T21:08:10.568Z,3.95
2023-03-17T21:10:39.264Z,4.18
2023-03-17T21:13:07.377Z,5.45
2023-03-17T21:15:36.002Z,4.00
2023-03-17T21:18:05.808Z,4.05
2023-03-17T21:20:33.940Z,5.13
2023-03-17T21:23:04.476Z,3.63
2023-03-17T21:25:35.995Z,3.33
2023-03-17T21:28:04.903Z,3.60
2023-03-17T21:30:34.111Z,3.65
2023-03-17T21:33:02.109Z,3.08
2023-03-17T21:35:34.476Z,3.53
2023-03-17T21:38:02.750Z,3.22
2023-03-17T21:40:31.583Z,3.72
2023-03-17T21:43:00.624Z,3.53
2023-03-17T21:45:29.221Z,2.70
2023-03-17T21:47:56.967Z,3.20
2023-03-17T21:50:24.732Z,3.85
2023-03-17T21:52:54.189Z,4.28
2023-03-17T21:55:21.859Z,3.58
2023-03-17T21:57:49.524Z,3.65
2023-03-17T22:00:18.002Z,3.00
2023-03-17T22:02:45.783Z,3.47
2023-03-17T22:05:18.336Z,3.45
2023-03-17T22:07:46.573Z,2.88
2023-03-17T22:10:15.571Z,2.42
2023-03-17T22:12:43.559Z,2.95
2023-03-17T22:15:12.120Z,3.30
2023-03-17T22:17:40.160Z,3.03
2023-03-17T22:20:08.973Z,2.95
2023-03-17T22:22:36.784Z,3.85
2023-03-17T22:25:06.182Z,3.83
2023-03-17T22:27:35.294Z,3.17
2023-03-17T22:30:03.029Z,2.97
2023-03-17T22:32:30.697Z,3.35
2023-03-17T22:34:59.253Z,3.05
2023-03-17T22:37:30.084Z,2.88
2023-03-17T22:40:02.455Z,3.38
2023-03-17T22:42:30.991Z,3.65
2023-03-17T22:44:59.970Z,5.57
2023-03-17T22:47:27.628Z,6.13
2023-03-17T22:49:55.229Z,4.85
2023-03-17T22:52:23.454Z,4.75
2023-03-17T22:54:51.334Z,4.53
2023-03-17T22:57:19.441Z,3.95
2023-03-17T22:59:47.373Z,3.03
2023-03-17T23:02:18.504Z,2.65
2023-03-17T23:04:46.406Z,2.15
2023-03-17T23:07:14.595Z,3.45
2023-03-17T23:09:42.643Z,2.90
2023-03-17T23:12:10.754Z,2.92
2023-03-17T23:14:39.273Z,4.72
2023-03-17T23:17:07.414Z,3.63
2023-03-17T23:19:36.507Z,3.80
2023-03-17T23:22:04.122Z,3.25
2023-03-17T23:24:31.697Z,3.50
2023-03-17T23:26:59.361Z,3.42
2023-03-17T23:29:27.667Z,3.05
2023-03-17T23:31:55.487Z,3.33
2023-03-17T23:34:23.203Z,2.13
2023-03-17T23:36:52.343Z,2.67
2023-03-17T23:39:20.317Z,2.65
2023-03-17T23:41:48.004Z,2.92
2023-03-17T23:44:16.268Z,2.35
2023-03-17T23:46:44.934Z,2.10
2023-03-17T23:49:13.081Z,1.88
2023-03-17T23:51:40.780Z,2.22
2023-03-17T23:54:10.146Z,2.33
2023-03-17T23:56:37.915Z,1.77
2023-03-17T23:59:07.493Z,2.35
